• Join FlightAware (Why Join?)
  • Login
  • US Flag 
03:29PM EDT


 

Airport Tracker/Info


-or-


 

Live Flight TrackerFlight Track Log ✈ DAL1903 ✈ 20-Apr-2013 ✈ KLGA - KSRQ

Flight Track Log - Related Links

Times and Time Zones

All times are in EDT time to prevent confusion due to time zone crossing. See the DAL1903 flight status page for this flight to view local times or setup timezone preferences in your user account.

Time Position Orientation Groundspeed Altitude Reporting Facility
EDT Latitude Longitude Course Direction KTS MPH feet Rate Location/Type
12:05PM 40.7833 -73.8833 242° Southwest 142 163 1,100  Level New York TRACON
12:06PM 40.8500 -73.9333 330° Northwest 228 262 3,000 2,460 Climbing New York TRACON
12:07PM 40.9000 -73.9667 333° Northwest 245 282 6,100 3,120 Climbing New York TRACON
12:08PM 40.6500 -74.2318 270° West  Level FlightAware Approximate
12:08PM 40.9000 -74.0500 270° West 246 283 9,000  Level New York TRACON
12:09PM 40.6050 -74.3532 244° Southwest  Level FlightAware Approximate
12:09PM 40.8500 -74.1167 225° Southwest 238 274 11,700  Level New York TRACON
12:10PM 40.5634 -74.4768 246° West  Level FlightAware Approximate
12:10PM 40.8167 -74.2000 242° Southwest 291 335 13,200  Level New York TRACON
12:11PM 40.5321 -74.6031 242° Southwest  Level FlightAware Approximate
12:11PM 40.7500 -74.2833 223° Southwest 338 389 14,900  Level New York TRACON
12:13PM 40.6297 -74.5036 234° Southwest 344 396 17,800 1,800 Climbing New York Center
12:15PM 40.5767 -74.6017 235° Southwest 344 396 21,200 2,820 Climbing New York Center
12:15PM 40.5319 -74.6894 236° Southwest 323 372 23,500 1,620 Climbing New York Center
12:16PM 40.4869 -74.7878 239° Southwest 315 362 24,500 1,680 Climbing New York Center
12:17PM 40.4464 -74.8781 239° Southwest 304 350 27,000 1,680 Climbing New York Center
12:19PM 40.4097 -74.9714 243° Southwest 299 344 28,000 480 Climbing New York Center
12:19PM 40.3708 -75.0669 242° Southwest 299 344 28,000  Level New York Center
12:20PM 40.3297 -75.1681 242° Southwest 304 350 28,000  Level New York Center
12:22PM 40.2903 -75.2717 244° Southwest 310 357 28,000  Level New York Center
12:22PM 40.2489 -75.3694 241° Southwest 315 362 28,000  Level New York Center
12:23PM 40.2094 -75.4756 244° Southwest 320 368 28,000  Level New York Center
12:24PM 40.1578 -75.5672 234° Southwest 320 368 28,000  Level New York Center
12:26PM 40.0786 -75.6161 205° Southwest 308 354 28,000  Level New York Center
12:27PM 39.9853 -75.6583 199° South 308 354 28,000  Level New York Center
12:27PM 39.9217 -75.7322 222° Southwest 314 361 28,000  Level New York Center
12:28PM 39.8617 -75.8172 227° Southwest 314 361 28,000  Level New York Center
12:30PM 39.7547 -75.9722 228° Southwest 312 359 28,000  Level Washington Center
12:31PM 39.6939 -76.0581 227° Southwest 319 367 28,000  Level Washington Center
12:32PM 39.6353 -76.1467 229° Southwest 324 373 28,000  Level Washington Center
12:33PM 39.5744 -76.2322 227° Southwest 324 373 28,000  Level Washington Center
12:34PM 39.5156 -76.3178 228° Southwest 324 373 28,000  Level Washington Center
12:35PM 39.4544 -76.4058 228° Southwest 324 373 28,000  Level Washington Center
12:36PM 39.3978 -76.4967 231° Southwest 329 379 28,000  Level Washington Center
12:37PM 39.3367 -76.5844 228° Southwest 335 386 28,000  Level Washington Center
12:38PM 39.2794 -76.6775 232° Southwest 335 386 28,000  Level Washington Center
12:39PM 39.2225 -76.7650 230° Southwest 330 380 28,000  Level Washington Center
12:40PM 39.1631 -76.8578 230° Southwest 330 380 28,000  Level Washington Center
12:41PM 39.1058 -76.9450 230° Southwest 330 380 28,000  Level Washington Center
12:42PM 39.0464 -77.0350 230° Southwest 330 380 28,000  Level Washington Center
12:43PM 38.9767 -77.1108 220° Southwest 330 380 28,000  Level Washington Center
12:44PM 38.9069 -77.1869 220° Southwest 330 380 28,000  Level Washington Center
12:45PM 38.8328 -77.2706 221° Southwest 330 380 28,000  Level Washington Center
12:46PM 38.7631 -77.3461 220° Southwest 330 380 28,000  Level Washington Center
12:47PM 38.6953 -77.4217 221° Southwest 330 380 28,000  Level Washington Center
12:48PM 38.6253 -77.4997 221° Southwest 330 380 28,000  Level Washington Center
12:49PM 38.5572 -77.5750 221° Southwest 330 380 28,000  Level Washington Center
12:50PM 38.4850 -77.6525 220° Southwest 330 380 28,000  Level Washington Center
12:51PM 38.4150 -77.7247 219° Southwest 330 380 28,000  Level Washington Center
12:52PM 38.3469 -77.7997 221° Southwest 330 380 28,000  Level Washington Center
12:53PM 38.2767 -77.8769 221° Southwest 336 387 28,000  Level Washington Center
12:54PM 38.2064 -77.9489 219° Southwest 336 387 28,000  Level Washington Center
12:55PM 38.1361 -78.0258 221° Southwest 336 387 28,000  Level Washington Center
12:56PM 38.0656 -78.1025 221° Southwest 336 387 28,000  Level Washington Center
12:57PM 37.9933 -78.1714 217° Southwest 331 381 28,000  Level Washington Center
12:58PM 37.9314 -78.2350 219° Southwest 331 381 28,000  Level Washington Center
12:59PM 37.8506 -78.3111 217° Southwest 331 381 28,000  Level Washington Center
01:00PM 37.7844 -78.3769 218° Southwest 336 387 28,000  Level Washington Center
01:01PM 37.7011 -78.4528 216° Southwest 336 387 28,000  Level Washington Center
01:02PM 37.6286 -78.5208 217° Southwest 341 392 28,000  Level Washington Center
01:03PM 37.5517 -78.5939 217° Southwest 341 392 28,000  Level Washington Center
01:04PM 37.4769 -78.6614 216° Southwest 341 392 28,000  Level Washington Center
01:05PM 37.4022 -78.7292 216° Southwest 341 392 28,000  Level Washington Center
01:06PM 37.3339 -78.7942 217° Southwest 346 398 28,000  Level Washington Center
01:07PM 37.2608 -78.8642 217° Southwest 346 398 28,000  Level Washington Center
01:08PM 37.1839 -78.9339 216° Southwest 346 398 28,000  Level Washington Center
01:09PM 37.1089 -79.0036 217° Southwest 346 398 28,000  Level Washington Center
01:10PM 37.0319 -79.0731 216° Southwest 346 398 28,000  Level Washington Center
01:11PM 36.9481 -79.1525 217° Southwest 346 398 28,000  Level Washington Center
01:12PM 36.8731 -79.2242 217° Southwest 346 398 28,000  Level Washington Center
01:14PM 36.7181 -79.3644 216° Southwest 351 404 28,000  Level Atlanta Center
01:15PM 36.6514 -79.4253 216° Southwest 351 404 28,000  Level Atlanta Center
01:16PM 36.5728 -79.4969 216° Southwest 351 404 28,000  Level Atlanta Center
01:17PM 36.4961 -79.5658 216° Southwest 351 404 28,000  Level Atlanta Center
01:18PM 36.4194 -79.6372 217° Southwest 351 404 28,000  Level Atlanta Center
01:19PM 36.3447 -79.7058 216° Southwest 351 404 28,000  Level Atlanta Center
01:20PM 36.2597 -79.7797 215° Southwest 351 404 28,000  Level Atlanta Center
01:21PM 36.1828 -79.8483 216° Southwest 351 404 28,000  Level Atlanta Center
01:22PM 36.1058 -79.9164 216° Southwest 351 404 28,000  Level Atlanta Center
01:23PM 36.0247 -79.9847 214° Southwest 351 404 28,000  Level Atlanta Center
01:24PM 35.9444 -80.0222 201° Southwest 351 404 28,000  Level Atlanta Center
01:25PM 35.8522 -80.0678 202° Southwest 351 404 28,000  Level Atlanta Center
01:26PM 35.7639 -80.1156 204° Southwest 351 404 28,000  Level Atlanta Center
01:27PM 35.6717 -80.1608 202° Southwest 351 404 28,000  Level Atlanta Center
01:28PM 35.5814 -80.2086 203° Southwest 351 404 28,000  Level Atlanta Center
01:29PM 35.4908 -80.2511 201° Southwest 351 404 28,000  Level Atlanta Center
01:30PM 35.4006 -80.2986 203° Southwest 351 404 28,000  Level Atlanta Center
01:31PM 35.2978 -80.3489 202° Southwest 351 404 28,000  Level Atlanta Center
01:33PM 35.1286 -80.4308 202° Southwest 370 426 28,000  Level Jacksonville Center
01:34PM 35.0358 -80.4792 203° Southwest 365 420 28,000  Level Jacksonville Center
01:35PM 34.9408 -80.5272 203° Southwest 365 420 28,000  Level Jacksonville Center
01:36PM 34.8497 -80.5728 202° Southwest 359 413 28,000  Level Jacksonville Center
01:37PM 34.7692 -80.6156 204° Southwest 364 419 28,000  Level Jacksonville Center
01:38PM 34.6761 -80.6608 202° Southwest 358 412 28,000  Level Jacksonville Center
01:39PM 34.5789 -80.7089 202° Southwest 364 419 28,000  Level Jacksonville Center
01:40PM 34.4839 -80.7564 202° Southwest 371 427 28,000  Level Jacksonville Center
01:41PM 34.3928 -80.8014 202° Southwest 366 421 28,000  Level Jacksonville Center
01:42PM 34.2975 -80.8414 199° South 366 421 28,000  Level Jacksonville Center
01:43PM 34.2086 -80.8914 205° Southwest 366 421 28,000  Level Jacksonville Center
01:44PM 34.1133 -80.9336 200° South 366 421 28,000  Level Jacksonville Center
01:45PM 34.0139 -80.9808 201° Southwest 371 427 28,000  Level Jacksonville Center
01:46PM 33.9125 -81.0333 203° Southwest 371 427 28,000  Level Jacksonville Center
01:47PM 33.8172 -81.0803 202° Southwest 371 427 28,000  Level Jacksonville Center
01:48PM 33.7300 -81.1219 202° Southwest 371 427 28,000  Level Jacksonville Center
01:49PM 33.6369 -81.1689 203° Southwest 371 427 28,000  Level Jacksonville Center
01:50PM 33.5436 -81.2156 203° Southwest 371 427 28,000  Level Jacksonville Center
01:51PM 33.4503 -81.2619 203° Southwest 371 427 28,000  Level Jacksonville Center
01:52PM 33.3547 -81.3061 201° Southwest 371 427 28,000  Level Jacksonville Center
01:53PM 33.2614 -81.3525 203° Southwest 371 427 28,000  Level Jacksonville Center
01:54PM 33.1703 -81.3986 203° Southwest 371 427 28,000  Level Jacksonville Center
01:55PM 33.0767 -81.4447 202° Southwest 371 427 28,000  Level Jacksonville Center
01:56PM 32.9833 -81.4883 201° Southwest 371 427 28,000  Level Jacksonville Center
01:57PM 32.8878 -81.5344 202° Southwest 376 433 28,000  Level Jacksonville Center
01:58PM 32.7964 -81.5778 202° Southwest 371 427 28,000  Level Jacksonville Center
01:59PM 32.7008 -81.6236 202° Southwest 371 427 28,000  Level Jacksonville Center
02:00PM 32.6011 -81.6719 202° Southwest 371 427 28,000  Level Jacksonville Center
02:01PM 32.5181 -81.7150 204° Southwest 371 427 28,000  Level Jacksonville Center
02:02PM 32.4142 -81.7606 200° South 371 427 28,000  Level Jacksonville Center
02:03PM 32.3225 -81.7814 191° South 376 433 28,000  Level Jacksonville Center
02:04PM 32.2100 -81.8025 189° South 376 433 28,000  Level Jacksonville Center
02:05PM 32.1097 -81.8256 191° South 376 433 28,000  Level Jacksonville Center
02:06PM 32.0161 -81.8414 188° South 371 427 28,000  Level Jacksonville Center
02:07PM 31.9036 -81.8647 190° South 371 427 28,000  Level Jacksonville Center
02:08PM 31.8117 -81.8806 188° South 371 427 28,000  Level Jacksonville Center
02:09PM 31.6969 -81.9011 189° South 371 427 28,000  Level Jacksonville Center
02:10PM 31.5950 -81.9219 190° South 371 427 28,000  Level Jacksonville Center
02:11PM 31.5011 -81.9400 189° South 371 427 28,000 -900 Level Jacksonville Center
02:12PM 31.3844 -81.9606 189° South 376 433 26,300 -1,560 Descending Jacksonville Center
02:13PM 31.2781 -81.9811 189° South 395 455 24,900 -1,200 Descending Jacksonville Center
02:14PM 31.1717 -82.0039 190° South 395 455 24,000 -480 Descending Jacksonville Center
02:15PM 31.0592 -82.0219 188° South 390 449 24,000  Level Jacksonville Center
02:16PM 30.9486 -82.0447 190° South 395 455 24,000  Level Jacksonville Center
02:17PM 30.8381 -82.0675 190° South 405 466 24,000  Level Jacksonville Center
02:18PM 30.7378 -82.0828 187° South 411 473 24,000  Level Jacksonville Center
02:19PM 30.6275 -82.1056 190° South 411 473 24,000  Level Jacksonville Center
02:20PM 30.5167 -82.1186 186° South 406 467 24,000  Level Jacksonville Center
02:21PM 30.4064 -82.1386 189° South 406 467 24,000  Level Jacksonville Center
02:22PM 30.2936 -82.1611 190° South 406 467 24,000  Level Jacksonville Center
02:23PM 30.1831 -82.1814 189° South 406 467 24,000  Level Jacksonville Center
02:24PM 30.0706 -82.2014 189° South 406 467 24,000  Level Jacksonville Center
02:25PM 29.9578 -82.2261 191° South 406 467 24,000  Level Jacksonville Center
02:26PM 29.8472 -82.2461 189° South 406 467 24,000 -60 Level Jacksonville Center
02:27PM 29.7325 -82.2636 188° South 413 475 23,900  Descending Jacksonville Center
02:28PM 29.6136 -82.2594 178° South 418 481 24,000  Climbing Jacksonville Center
02:29PM 29.5008 -82.2436 173° South 418 481 24,000  Level Jacksonville Center
02:30PM 29.3839 -82.2253 172° South 424 488 24,000  Level Jacksonville Center
02:31PM 29.2647 -82.2069 172° South 424 488 24,000 -300 Level Jacksonville Center
02:32PM 29.1497 -82.1889 172° South 429 494 23,400 -1,380 Descending Jacksonville Center
02:33PM 29.0411 -82.1728 173° South 412 474 21,300 -2,280 Descending Jacksonville Center
02:34PM 28.9242 -82.1525 171° South 395 455 18,900 -2,280 Descending Jacksonville Center
02:36PM 28.7500 -82.1333 174° South 360 414 15,100 -2,220 Descending Tampa TRACON
02:37PM 28.6667 -82.1167 170° South 348 400 13,000 -2,100 Descending Tampa TRACON
02:38PM 28.5667 -82.1000 172° South 346 398 11,200 -1,020 Descending Tampa TRACON
02:39PM 28.4667 -82.0833 172° South 350 403 11,000 -120 Descending Tampa TRACON
02:40PM 28.3667 -82.0667 172° South 365 420 11,000  Level Tampa TRACON
02:41PM 28.2500 -82.0500 173° South 377 434 11,000  Level Tampa TRACON
02:42PM 28.1333 -82.0333 173° South 379 436 11,000  Level Tampa TRACON
02:43PM 28.0500 -82.0667 199° South 350 403 11,000 -420 Level Tampa TRACON
02:44PM 27.9667 -82.1167 208° Southwest 291 335 10,200 -1,080 Descending Tampa TRACON
02:45PM 27.9000 -82.1500 204° Southwest 266 306 8,700 -1,500 Descending Tampa TRACON
02:46PM 27.8167 -82.2000 208° Southwest 263 303 6,900 -1,500 Descending Tampa TRACON
02:47PM 27.7833 -82.2167 204° Southwest 260 299 6,000 -540 Descending Tampa TRACON
02:48PM 27.7167 -82.2833 222° Southwest 256 295 6,000 -60 Level Tampa TRACON
02:49PM 27.6500 -82.3167 204° Southwest 257 296 5,900  Descending Tampa TRACON
02:50PM 27.5833 -82.3500 204° Southwest 258 297 6,000 -120 Climbing Tampa TRACON
02:51PM 27.5167 -82.3833 204° Southwest 257 296 5,700 -300 Descending Tampa TRACON